This is the latest recevied weather packets stored in our database for station/object JE4YKI-13. If no packets are shown the sender has not sent any weather packets the latest 10 day(s).
| Time | Temp. | Humidity | Pressure | Rain* | Wind** | Luminosity | Snow |
|---|---|---|---|---|---|---|---|
| 1777474437 | 12.78° C | 89% | 1017.4 hPa | 0 mm | - | - | - |
| 1777473837 | 13.33° C | 87% | 1017.5 hPa | 0 mm | - | - | - |
| 1777473236 | 13.33° C | 86% | 1017.4 hPa | 0 mm | - | - | - |
| 1777472632 | 13.33° C | 84% | 1017.3 hPa | 0 mm | - | - | - |
| 1777472031 | 13.89° C | 82% | 1017.3 hPa | 0 mm | - | - | - |
| 1777471431 | 13.89° C | 80% | 1017.1 hPa | 0 mm | - | - | - |
| 1777470831 | 13.89° C | 79% | 1017.1 hPa | 0 mm | - | - | - |
| 1777470230 | 13.89° C | 79% | 1017.1 hPa | 0 mm | - | - | - |
| 1777469028 | 14.44° C | 78% | 1017.3 hPa | 0 mm | - | - | - |
| 1777468428 | 13.89° C | 80% | 1017.2 hPa | 0 mm | - | - | - |
| 1777467828 | 13.89° C | 81% | 1017.2 hPa | 0 mm | - | - | - |
| 1777467227 | 13.89° C | 81% | 1017.3 hPa | 0 mm | - | - | - |
| 1777466627 | 13.89° C | 82% | 1017.2 hPa | 0 mm | - | - | - |
| 1777466027 | 13.89° C | 82% | 1017.1 hPa | 0 mm | - | - | - |
| 1777465669 | 13.89° C | 82% | 1016.9 hPa | 0 mm | - | - | - |
| 1777465427 | 13.89° C | 82% | 1016.9 hPa | 0 mm | - | - | - |
| 1777464826 | 14.44° C | 82% | 1016.9 hPa | 0 mm | - | - | - |
| 1777464426 | 14.44° C | 81% | 1016.8 hPa | 0 mm | - | - | - |
| 1777463656 | 14.44° C | 81% | 1016.7 hPa | 0 mm | - | - | - |
| 1777463132 | 15° C | 78% | 1016.7 hPa | 0 mm | - | - | - |
| 1777461825 | 16.11° C | 67% | 1016.6 hPa | 0 mm | - | - | - |
| 1777460624 | 16.11° C | 66% | 1016.6 hPa | 0 mm | - | - | - |
| 1777460022 | 16.11° C | 65% | 1016.6 hPa | 0 mm | - | - | - |
| 1777459422 | 16.11° C | 65% | 1016.4 hPa | 0 mm | - | - | - |
| 1777458822 | 16.11° C | 64% | 1016.2 hPa | 0 mm | - | - | - |
* Rain latest hour (hover to see other rain measurements)
** Current wind speed in m/s (hover to see current wind gust speed)